»·PEaware :: N915TB KOLS-L04

N915TB :: KOLS-L04

FLIGHT INFORMATION

Flight Status: Arrived
Operator: Privately registered:
United States
More flights under this callsign
Pilot: Jake M. (20491)
Aircraft: SOCATA TBM-900
(TBM9)
More flights by this aircraft type
Origin: KOLS Nogales Intl
United States
Destination: L04 Holtville
United States
More flights between these airports :: More routes between these airports
Route: OLS V393 TUS V66 ARAZI
File this flight plan on PilotEdge
Remarks:
Altitude:
(Current/Filed)
20,000ft
Speed:
(Current/Filed)
280kts
Departed: 09-Jan-20 08:16 AM
Arrived: 09-Jan-20 09:39 AM
Distance/Time
Traveled:
240nm/1:23
Distance/Time
To Go:
Arrived

Flight Plot

Page will automatically refresh every two minutes.

Flight plan parsing failed; only flown route is shown


Map Options




Map Legend


Flown Route
Filed Route
Departure Airport
Arrival Airport
Navaid (VOR, NDB)
Fix

Horizontal Profiles

Position Reports

Time Latitude Longitude Heading Altitude Ground
Speed
09-Jan-20 08:14 31.570432 -110.822269 196 12501ft 252kts
09-Jan-20 08:15 31.502112 -110.833734 196 12033ft 231kts
09-Jan-20 08:16 31.441064 -110.845305 196 9935ft 205kts
09-Jan-20 08:17 31.386757 -110.843909 130 7923ft 208kts
09-Jan-20 08:18 31.347577 -110.826972 250 6317ft 176kts
09-Jan-20 08:19 31.387123 -110.861713 338 5108ft 203kts
09-Jan-20 08:20 31.430130 -110.848160 48 4497ft 108kts
09-Jan-20 08:21 31.417446 -110.848258 225 3892ft 75kts
09-Jan-20 08:22 31.412602 -110.854023 226 3854ft 7kts
09-Jan-20 08:23 31.411167 -110.856523 309 3838ft 0kts
09-Jan-20 08:24 31.411167 -110.856523 309 3838ft 0kts
09-Jan-20 08:25 31.411167 -110.856523 309 3838ft 0kts
09-Jan-20 08:26 31.411233 -110.856453 145 3838ft 7kts
09-Jan-20 08:27 31.430023 -110.844647 353 4335ft 156kts
09-Jan-20 08:28 31.475673 -110.849576 352 6556ft 169kts
09-Jan-20 08:29 31.522796 -110.854438 348 8833ft 176kts
09-Jan-20 08:30 31.570528 -110.859319 342 11424ft 169kts
09-Jan-20 08:31 31.617323 -110.864358 339 13773ft 172kts
09-Jan-20 08:32 31.664677 -110.869347 337 16220ft 174kts
09-Jan-20 08:33 31.713305 -110.874491 336 18532ft 178kts
09-Jan-20 08:34 31.765448 -110.880220 339 20072ft 216kts
09-Jan-20 08:35 31.835053 -110.887463 341 20041ft 269kts
09-Jan-20 08:36 31.911941 -110.895493 342 20031ft 282kts
09-Jan-20 08:37 31.990779 -110.903788 342 20031ft 285kts
09-Jan-20 08:38 32.069963 -110.912182 342 20033ft 287kts
09-Jan-20 08:40 32.119198 -110.963729 292 20036ft 238kts
09-Jan-20 08:41 32.153352 -111.031164 292 20036ft 238kts
09-Jan-20 08:42 32.186991 -111.098500 292 20040ft 237kts
09-Jan-20 08:43 32.220602 -111.166004 292 20042ft 238kts
09-Jan-20 08:44 32.253591 -111.234482 291 20042ft 238kts
09-Jan-20 08:45 32.286572 -111.304015 291 20041ft 238kts
09-Jan-20 08:46 32.319436 -111.373445 291 20040ft 238kts
09-Jan-20 08:47 32.355353 -111.442347 294 20030ft 240kts
09-Jan-20 08:48 32.392024 -111.511973 292 20019ft 239kts
09-Jan-20 08:49 32.427177 -111.583352 292 20008ft 239kts
09-Jan-20 08:50 32.462413 -111.655065 291 20003ft 239kts
09-Jan-20 08:51 32.497501 -111.726580 291 20004ft 241kts
09-Jan-20 08:52 32.532916 -111.798863 291 20002ft 241kts
09-Jan-20 08:53 32.568102 -111.870824 291 20001ft 241kts
09-Jan-20 08:54 32.602685 -111.941693 291 19994ft 242kts
09-Jan-20 08:55 32.637460 -112.013115 292 19988ft 242kts
09-Jan-20 08:56 32.672401 -112.084967 292 19981ft 243kts
09-Jan-20 08:57 32.707207 -112.156704 292 19980ft 242kts
09-Jan-20 08:58 32.746376 -112.237608 292 19979ft 242kts
09-Jan-20 08:59 32.780715 -112.308691 292 19978ft 242kts
09-Jan-20 08:59 32.810167 -112.369768 292 19977ft 242kts
09-Jan-20 09:01 32.850516 -112.453618 292 19976ft 242kts
09-Jan-20 09:02 32.885225 -112.525895 292 19976ft 242kts
09-Jan-20 09:02 32.914417 -112.586798 292 19975ft 242kts
09-Jan-20 09:04 32.953885 -112.670755 282 19974ft 237kts
09-Jan-20 09:05 32.946367 -112.747790 260 19986ft 232kts
09-Jan-20 09:05 32.937832 -112.811626 260 19985ft 233kts
09-Jan-20 09:07 32.925802 -112.900722 260 19983ft 232kts
09-Jan-20 09:07 32.917200 -112.964107 260 19983ft 232kts
09-Jan-20 09:08 32.906813 -113.040289 261 19981ft 232kts
09-Jan-20 09:10 32.894591 -113.129526 261 19981ft 232kts
09-Jan-20 09:10 32.885720 -113.193905 261 19979ft 231kts
09-Jan-20 09:11 32.875066 -113.271035 261 19978ft 231kts
09-Jan-20 09:13 32.862380 -113.362335 261 19977ft 230kts
09-Jan-20 09:13 32.853387 -113.426721 261 19976ft 230kts
09-Jan-20 09:14 32.842668 -113.503200 261 19975ft 230kts
09-Jan-20 09:15 32.832088 -113.578319 261 19974ft 229kts
09-Jan-20 09:16 32.821441 -113.653487 261 19976ft 229kts
09-Jan-20 09:17 32.810585 -113.729962 261 19986ft 230kts
09-Jan-20 09:18 32.800043 -113.803812 261 19982ft 216kts
09-Jan-20 09:19 32.789487 -113.877465 261 19718ft 222kts
09-Jan-20 09:20 32.777896 -113.957860 261 18183ft 246kts
09-Jan-20 09:21 32.775116 -114.042799 269 16629ft 253kts
09-Jan-20 09:22 32.774222 -114.128817 269 15363ft 253kts
09-Jan-20 09:23 32.773251 -114.213825 269 14203ft 251kts
09-Jan-20 09:24 32.772247 -114.298225 269 13076ft 251kts
09-Jan-20 09:25 32.771179 -114.382885 269 11947ft 248kts
09-Jan-20 09:26 32.770104 -114.463287 269 10876ft 238kts
09-Jan-20 09:27 32.768969 -114.544398 269 9813ft 243kts
09-Jan-20 09:28 32.767658 -114.628305 269 8711ft 254kts
09-Jan-20 09:29 32.768258 -114.715404 278 7556ft 260kts
09-Jan-20 09:30 32.780574 -114.802840 278 6385ft 258kts
09-Jan-20 09:31 32.791412 -114.880313 278 5983ft 210kts
09-Jan-20 09:32 32.800898 -114.948440 278 5496ft 207kts
09-Jan-20 09:33 32.814247 -115.017268 282 3876ft 227kts
09-Jan-20 09:34 32.829782 -115.094301 282 2450ft 234kts
09-Jan-20 09:35 32.843821 -115.164448 282 1452ft 187kts
09-Jan-20 09:36 32.844624 -115.216370 269 765ft 138kts
09-Jan-20 09:37 32.844775 -115.252716 270 224ft 79kts
09-Jan-20 09:38 32.843735 -115.264135 196 62ft 0kts

Navigation Log

Ident Type
Flight plan parsing failed, navigation log unavailable